createdAt,value
2018-04-07T00:02:25.479Z,16.35
2018-04-07T00:04:53.729Z,13.90
2018-04-07T00:07:21.195Z,20.85
2018-04-07T00:09:48.718Z,12.95
2018-04-07T00:12:16.191Z,16.35
2018-04-07T00:14:43.707Z,18.25
2018-04-07T00:17:11.187Z,14.25
2018-04-07T00:19:38.672Z,11.07
2018-04-07T00:22:06.171Z,12.90
2018-04-07T00:24:34.441Z,11.75
2018-04-07T00:27:02.706Z,12.63
2018-04-07T00:29:30.199Z,12.43
2018-04-07T00:31:57.687Z,11.88
2018-04-07T00:34:25.198Z,12.35
2018-04-07T00:36:52.698Z,11.30
2018-04-07T00:39:20.163Z,12.27
2018-04-07T00:41:47.667Z,16.83
2018-04-07T00:44:15.935Z,14.75
2018-04-07T00:46:43.403Z,12.75
2018-04-07T00:49:11.666Z,12.48
2018-04-07T00:51:39.147Z,12.02
2018-04-07T00:54:07.423Z,12.85
2018-04-07T00:56:35.651Z,12.63
2018-04-07T00:59:03.187Z,12.32
2018-04-07T01:01:30.650Z,11.73
2018-04-07T01:03:58.182Z,13.82
2018-04-07T01:06:26.424Z,12.55
2018-04-07T01:08:53.907Z,10.07
2018-04-07T01:11:22.166Z,12.88
2018-04-07T01:13:49.650Z,11.35
2018-04-07T01:16:17.907Z,13.00
2018-04-07T01:18:45.386Z,17.65
2018-04-07T01:21:13.643Z,13.57
2018-04-07T01:23:41.120Z,12.32
2018-04-07T01:26:09.404Z,10.68
2018-04-07T01:28:37.649Z,13.27
2018-04-07T01:31:05.143Z,12.25
2018-04-07T01:33:32.616Z,11.10
2018-04-07T01:36:00.164Z,12.60
2018-04-07T01:38:27.637Z,11.40
2018-04-07T01:40:55.119Z,14.73
2018-04-07T01:43:22.652Z,9.77
2018-04-07T01:45:50.853Z,12.30
2018-04-07T01:48:18.367Z,13.02
2018-04-07T01:50:45.844Z,12.07
2018-04-07T01:53:13.345Z,13.95
2018-04-07T01:55:40.793Z,12.52
2018-04-07T01:58:08.286Z,14.63
2018-04-07T02:00:36.518Z,14.20
2018-04-07T02:03:04.015Z,11.27
2018-04-07T02:05:31.482Z,12.80
2018-04-07T02:07:59.716Z,11.23
2018-04-07T02:10:27.219Z,11.05
2018-04-07T02:12:55.450Z,11.63
2018-04-07T02:15:22.978Z,11.07
2018-04-07T02:17:50.443Z,10.18
2018-04-07T02:20:17.934Z,11.57
2018-04-07T02:22:45.420Z,13.70
2018-04-07T02:25:13.688Z,12.43
2018-04-07T02:27:41.161Z,11.43
2018-04-07T02:30:09.438Z,10.13
2018-04-07T02:32:37.668Z,9.68
2018-04-07T02:35:05.124Z,16.77
2018-04-07T02:37:32.607Z,16.65
2018-04-07T02:40:00.088Z,11.12
2018-04-07T02:42:27.573Z,13.40
2018-04-07T02:44:55.055Z,11.43
2018-04-07T02:47:22.584Z,12.77
2018-04-07T02:49:50.036Z,13.48
2018-04-07T02:52:17.536Z,13.68
2018-04-07T02:54:45.006Z,14.25
2018-04-07T02:57:12.493Z,15.23
2018-04-07T02:59:39.990Z,11.90
2018-04-07T03:02:07.461Z,11.15
2018-04-07T03:04:34.955Z,13.02
2018-04-07T03:07:02.419Z,12.57
2018-04-07T03:09:31.416Z,13.55
2018-04-07T03:11:58.895Z,13.15
2018-04-07T03:14:27.158Z,12.18
2018-04-07T03:16:55.408Z,11.80
2018-04-07T03:19:22.900Z,11.20
2018-04-07T03:21:51.168Z,12.40
2018-04-07T03:24:18.669Z,9.60
2018-04-07T03:26:46.173Z,13.10
2018-04-07T03:29:13.646Z,11.18
2018-04-07T03:31:41.918Z,15.40
2018-04-07T03:34:09.397Z,11.85
2018-04-07T03:36:37.657Z,11.77
2018-04-07T03:39:05.142Z,12.77
2018-04-07T03:41:32.645Z,15.25
2018-04-07T03:44:00.102Z,12.32
2018-04-07T03:46:27.595Z,12.55
2018-04-07T03:48:55.821Z,14.27
2018-04-07T03:51:23.299Z,13.30
2018-04-07T03:53:50.779Z,13.43
2018-04-07T03:56:18.271Z,14.73
2018-04-07T03:58:45.765Z,12.90
2018-04-07T04:01:13.230Z,11.88
2018-04-07T04:03:40.713Z,12.45
2018-04-07T04:06:08.177Z,11.43
2018-04-07T04:08:35.700Z,14.73
2018-04-07T04:11:03.166Z,10.40
2018-04-07T04:13:30.657Z,13.00
2018-04-07T04:15:58.917Z,17.77
2018-04-07T04:18:26.438Z,11.82
2018-04-07T04:20:53.930Z,14.32
2018-04-07T04:23:21.451Z,10.15
2018-04-07T04:25:48.919Z,15.15
2018-04-07T04:28:16.379Z,14.93
2018-04-07T04:30:43.869Z,12.15
2018-04-07T04:33:12.129Z,14.07
2018-04-07T04:35:39.618Z,11.65
2018-04-07T04:38:07.854Z,13.65
2018-04-07T04:40:35.355Z,12.07
2018-04-07T04:43:03.579Z,13.05
2018-04-07T04:45:31.066Z,14.10
2018-04-07T04:47:58.558Z,15.55
2018-04-07T04:50:26.827Z,12.35
2018-04-07T04:52:55.082Z,13.82
2018-04-07T04:55:22.552Z,12.40
2018-04-07T04:57:50.052Z,15.32
2018-04-07T05:00:17.546Z,14.43
2018-04-07T05:02:45.045Z,15.57
2018-04-07T05:05:13.287Z,14.15
2018-04-07T05:07:40.788Z,14.00
2018-04-07T05:10:09.038Z,14.52
2018-04-07T05:12:37.287Z,10.98
2018-04-07T05:15:04.792Z,12.40
2018-04-07T05:17:33.034Z,15.10
2018-04-07T05:20:00.578Z,16.90
2018-04-07T05:22:28.062Z,13.55
2018-04-07T05:24:55.548Z,13.55
2018-04-07T05:27:23.811Z,18.50
2018-04-07T05:29:52.088Z,18.23
2018-04-07T05:32:20.338Z,17.02
2018-04-07T05:34:47.822Z,20.42
2018-04-07T05:37:16.098Z,17.35
2018-04-07T05:39:44.326Z,19.87
2018-04-07T05:42:11.830Z,16.55
2018-04-07T05:44:39.307Z,21.77
2018-04-07T05:47:07.567Z,16.85
2018-04-07T05:49:35.036Z,15.13
2018-04-07T05:52:03.294Z,16.25
2018-04-07T05:54:30.818Z,15.68
2018-04-07T05:56:58.300Z,13.77
2018-04-07T05:59:25.760Z,16.00
2018-04-07T06:01:53.241Z,18.90
2018-04-07T06:04:21.491Z,20.08
2018-04-07T06:06:48.998Z,17.60
2018-04-07T06:09:16.459Z,16.83
2018-04-07T06:11:43.974Z,18.83
2018-04-07T06:14:11.470Z,19.20
2018-04-07T06:16:39.050Z,23.75
2018-04-07T06:19:06.510Z,15.50
2018-04-07T06:21:34.030Z,17.30
2018-04-07T06:24:02.269Z,16.58
2018-04-07T06:26:29.731Z,19.20
2018-04-07T06:28:57.229Z,21.80
2018-04-07T06:31:25.496Z,14.95
2018-04-07T06:33:53.865Z,17.12
2018-04-07T06:36:21.338Z,15.40
2018-04-07T06:38:49.590Z,17.05
2018-04-07T06:41:17.063Z,21.67
2018-04-07T06:43:45.339Z,18.98
2018-04-07T06:46:12.848Z,18.55
2018-04-07T06:48:40.334Z,18.83
2018-04-07T06:51:07.825Z,21.62
2018-04-07T06:53:36.103Z,23.23
2018-04-07T06:56:04.353Z,23.23
2018-04-07T06:58:31.838Z,21.20
2018-04-07T07:01:00.115Z,18.60
2018-04-07T07:03:28.374Z,21.35
2018-04-07T07:05:55.880Z,19.52
2018-04-07T07:08:23.343Z,19.62
2018-04-07T07:10:50.859Z,19.40
2018-04-07T07:13:19.090Z,19.87
2018-04-07T07:15:46.586Z,20.42
2018-04-07T07:18:14.048Z,22.27
2018-04-07T07:20:41.538Z,22.42
2018-04-07T07:23:09.018Z,18.67
2018-04-07T07:25:36.531Z,17.87
2018-04-07T07:28:03.990Z,18.12
2018-04-07T07:30:32.260Z,22.48
2018-04-07T07:32:59.730Z,21.45
2018-04-07T07:35:28.034Z,20.60
2018-04-07T07:37:55.569Z,19.35
2018-04-07T07:40:23.842Z,18.90
2018-04-07T07:42:52.133Z,20.42
2018-04-07T07:45:20.390Z,20.77
2018-04-07T07:47:48.637Z,20.00
2018-04-07T07:50:16.268Z,16.27
2018-04-07T07:52:43.738Z,16.20
2018-04-07T07:55:11.253Z,22.17
2018-04-07T07:57:39.499Z,17.45
2018-04-07T08:00:07.022Z,20.17
2018-04-07T08:02:34.503Z,21.50
2018-04-07T08:05:02.014Z,18.27
2018-04-07T08:07:29.536Z,18.45
2018-04-07T08:09:57.010Z,18.77
2018-04-07T08:12:24.538Z,25.70
2018-04-07T08:14:52.030Z,19.20
2018-04-07T08:17:19.539Z,26.67
2018-04-07T08:19:47.012Z,17.55
2018-04-07T08:22:14.512Z,19.67
2018-04-07T08:24:42.761Z,17.02
2018-04-07T08:27:10.266Z,20.57
2018-04-07T08:29:37.745Z,18.40
2018-04-07T08:32:05.331Z,16.90
2018-04-07T08:34:33.538Z,17.97
2018-04-07T08:37:01.062Z,18.03
2018-04-07T08:39:28.611Z,17.53
2018-04-07T08:41:56.097Z,15.67
2018-04-07T08:44:23.599Z,17.33
2018-04-07T08:46:51.835Z,17.43
2018-04-07T08:49:19.358Z,19.73
2018-04-07T08:51:46.836Z,16.60
2018-04-07T08:54:14.326Z,14.87
2018-04-07T08:56:41.830Z,18.77
2018-04-07T08:59:09.322Z,17.07
2018-04-07T09:01:36.845Z,15.57
2018-04-07T09:04:04.344Z,16.40
2018-04-07T09:06:31.869Z,16.33
2018-04-07T09:08:59.377Z,16.90
2018-04-07T09:11:26.848Z,14.63
2018-04-07T09:13:55.107Z,18.50
2018-04-07T09:16:22.597Z,16.73
2018-04-07T09:18:50.093Z,15.93
2018-04-07T09:21:17.586Z,14.20
2018-04-07T09:23:45.086Z,19.57
2018-04-07T09:26:12.609Z,16.50
2018-04-07T09:28:40.156Z,21.10
2018-04-07T09:31:13.415Z,20.73
2018-04-07T09:33:40.917Z,17.50
2018-04-07T09:36:09.151Z,14.57
2018-04-07T09:38:36.675Z,15.33
2018-04-07T09:41:04.916Z,16.70
2018-04-07T09:43:32.428Z,17.70
2018-04-07T09:45:59.910Z,11.90
2018-04-07T09:48:27.398Z,14.90
2018-04-07T09:50:54.882Z,15.50
2018-04-07T09:53:23.135Z,15.73
2018-04-07T09:55:50.602Z,14.37
2018-04-07T09:58:18.846Z,14.17
2018-04-07T10:00:47.307Z,13.70
2018-04-07T10:03:20.464Z,14.90
2018-04-07T10:05:48.787Z,12.90
2018-04-07T10:08:16.283Z,16.33
2018-04-07T10:10:43.794Z,15.50
2018-04-07T10:13:11.279Z,13.57
2018-04-07T10:15:38.789Z,11.30
2018-04-07T10:18:06.313Z,21.60
2018-04-07T10:20:33.806Z,10.93
2018-04-07T10:23:02.034Z,15.83
2018-04-07T10:25:29.516Z,13.47
2018-04-07T10:27:57.002Z,11.40
2018-04-07T10:30:25.240Z,12.33
2018-04-07T10:32:52.736Z,14.33
2018-04-07T10:35:20.238Z,13.03
2018-04-07T10:37:47.746Z,14.80
2018-04-07T10:40:15.987Z,18.20
2018-04-07T10:42:43.479Z,13.57
2018-04-07T10:45:11.734Z,15.00
2018-04-07T10:47:39.238Z,15.47
2018-04-07T10:50:06.733Z,12.77
2018-04-07T10:52:34.225Z,16.83
2018-04-07T10:55:01.727Z,12.37
2018-04-07T10:57:29.231Z,11.70
2018-04-07T10:59:56.759Z,11.50
2018-04-07T11:02:24.218Z,13.70
2018-04-07T11:04:51.727Z,12.50
2018-04-07T11:07:19.996Z,13.10
2018-04-07T11:09:47.504Z,15.57
2018-04-07T11:12:14.973Z,13.87
2018-04-07T11:14:42.472Z,13.97
2018-04-07T11:17:09.930Z,12.70
2018-04-07T11:19:37.474Z,18.90
2018-04-07T11:22:04.958Z,12.47
2018-04-07T11:24:33.232Z,13.60
2018-04-07T11:27:01.491Z,14.57
2018-04-07T11:29:28.966Z,12.47
2018-04-07T11:31:57.223Z,14.30
2018-04-07T11:34:24.705Z,16.40
2018-04-07T11:36:52.979Z,14.50
2018-04-07T11:39:21.244Z,14.33
2018-04-07T11:41:48.750Z,12.37
2018-04-07T11:44:16.246Z,15.57
2018-04-07T11:46:43.763Z,15.97
2018-04-07T11:49:11.257Z,17.60
2018-04-07T11:51:39.530Z,11.43
2018-04-07T11:54:07.037Z,17.40
2018-04-07T11:56:34.504Z,14.50
